Cambridgeport, VT (05141)

7:09 PM EST on January 29, 2015 (GMT -0500)
Popple Dungeon Road | Change Station
CLOSE
Current Station
Personal Weather Station
Location: Chester, VT
Elevation: 1690 ft
Nearby Weather Stations
Active Advisory: Winter Weather Advisory

Elev 1690 ft 43.22 °N, 72.69 °W | Updated 14 seconds ago

Overcast
Overcast
25.9 °F
Feels Like 26 °F
N
0.0
Wind Variable Wind from ENE
Gusts 0.0 mph

Today
High -- | Low -- °F
--% Chance of Precip.
Yesterday
High -- | Low -- °F
Precip. -- in
7:08 AM 4:58 PM
Waxing Gibbous, 78% visible
Pressure 30.11 in
Visibility 10.0 miles
Clouds Mostly Cloudy 9500 ft
Overcast 12000 ft
Windchill 26 °F
Dew Point -4 °F
Humidity 26%
Rainfall 0.00 in
Snow Depth Not available.
UV 0.0 out of 12
Pollen .10 out of 12
Air Quality Not available.
Flu Activity Not available.
METAR KVSF 292354Z AUTO 16006KT 10SM BKN095 OVC120 M02/M16 A3007 RMK AO2 SLP195 T10221161 11006 21050 58008 TSNO

More Conditions Fewer Conditions

Pressure 30.11 in
Visibility 10.0 miles
Clouds Mostly Cloudy 9500 ft
Overcast 12000 ft
Windchill 26 °F
Dew Point -4 °F
Humidity 26%
Rainfall 0.00 in
Snow Depth Not available.
UV 0.0 out of 12
Pollen .10 out of 12
Air Quality Not available.
Flu Activity Not available.
METAR KVSF 292354Z AUTO 16006KT 10SM BKN095 OVC120 M02/M16 A3007 RMK AO2 SLP195 T10221161 11006 21050 58008 TSNO

More Conditions Fewer Conditions

10-Day Weather Forecast

Almanac

Astronomy

Jan. 29, 2015 Rise Set
Actual Time
Civil Twilight
Nautical Twilight
Astronomical Twilight
Moon
Length of Visible Light
Length of Day
Tomorrow will be .
, % of the Moon is Illuminated

Today's Extremes

State Highs State Lows

Community

WunderPhotos

Upload Photos

1,791,645 photos uploaded!

WunderBlogs® & News

Nearby

Air Quality

  Air Quality AQ Index Pollutant
Not available.

Snow Depth

Station Depth Elevation

Earthquake Activity

City Distance Mag. Time & Date
Minimum magnitude displayed is 2.5.

Coastal Water Temperatures

Place Temperature

Nearby Weather Stations